createdAt,value
2023-01-29T00:02:09.705Z,94.25
2023-01-29T00:07:03.209Z,88.57
2023-01-29T00:09:31.413Z,98.78
2023-01-29T00:11:58.306Z,90.88
2023-01-29T00:14:26.418Z,87.05
2023-01-29T00:16:53.994Z,98.60
2023-01-29T00:19:20.843Z,95.75
2023-01-29T00:21:47.561Z,76.68
2023-01-29T00:24:14.359Z,89.95
2023-01-29T00:26:42.484Z,105.47
2023-01-29T00:29:09.388Z,85.07
2023-01-29T00:31:36.216Z,94.25
2023-01-29T00:34:03.613Z,90.65
2023-01-29T00:36:30.336Z,99.82
2023-01-29T00:38:59.144Z,100.70
2023-01-29T00:41:49.404Z,102.70
2023-01-29T00:44:35.803Z,96.32
2023-01-29T00:47:02.990Z,90.70
2023-01-29T00:54:43.651Z,86.70
2023-01-29T00:57:10.354Z,96.40
2023-01-29T01:02:30.496Z,99.97
2023-01-29T01:04:57.373Z,95.82
2023-01-29T01:07:24.102Z,96.22
2023-01-29T01:10:09.626Z,83.75
2023-01-29T01:12:36.430Z,97.50
2023-01-29T01:15:03.264Z,102.80
2023-01-29T01:17:30.173Z,84.68
2023-01-29T01:19:56.939Z,106.75
2023-01-29T01:22:23.707Z,101.07
2023-01-29T01:24:50.457Z,98.40
2023-01-29T01:27:19.524Z,99.13
2023-01-29T01:29:47.163Z,95.82
2023-01-29T01:34:40.581Z,96.82
2023-01-29T01:37:07.410Z,91.47
2023-01-29T01:39:34.123Z,98.13
2023-01-29T01:42:00.907Z,90.05
2023-01-29T01:45:08.042Z,99.82
2023-01-29T01:47:46.399Z,96.13
2023-01-29T01:50:19.019Z,95.60
2023-01-29T01:52:52.093Z,95.75
2023-01-29T01:55:23.165Z,85.05
2023-01-29T01:57:55.056Z,101.75
2023-01-29T02:00:23.274Z,96.75
2023-01-29T02:03:08.452Z,87.57
2023-01-29T02:05:54.777Z,103.53
2023-01-29T02:08:54.585Z,95.68
2023-01-29T02:11:21.438Z,91.95
2023-01-29T02:13:53.517Z,97.65
2023-01-29T02:16:26.043Z,92.13
2023-01-29T02:18:53.352Z,84.20
2023-01-29T02:24:23.093Z,88.43
2023-01-29T02:26:55.891Z,103.97
2023-01-29T02:29:30.602Z,99.25
2023-01-29T02:32:15.202Z,97.25
2023-01-29T02:35:22.148Z,102.07
2023-01-29T02:38:22.598Z,82.88
2023-01-29T02:41:26.681Z,104.88
2023-01-29T02:44:06.041Z,85.63
2023-01-29T02:46:40.079Z,93.18
2023-01-29T02:49:24.945Z,94.03
2023-01-29T02:52:07.992Z,102.30
2023-01-29T02:55:04.988Z,103.55
2023-01-29T02:57:37.939Z,92.95
2023-01-29T03:00:15.139Z,99.63
2023-01-29T03:02:47.729Z,94.43
2023-01-29T03:05:25.515Z,97.57
2023-01-29T03:10:35.954Z,83.32
2023-01-29T03:13:27.613Z,89.63
2023-01-29T03:16:03.938Z,99.68
2023-01-29T03:18:50.844Z,98.80
2023-01-29T03:21:41.676Z,89.85
2023-01-29T03:24:32.509Z,89.97
2023-01-29T03:27:23.744Z,77.88
2023-01-29T03:30:12.689Z,88.45
2023-01-29T03:33:00.988Z,81.63
2023-01-29T03:35:37.474Z,98.13
2023-01-29T03:38:10.179Z,88.80
2023-01-29T03:41:03.894Z,95.78
2023-01-29T03:43:45.804Z,89.50
2023-01-29T03:46:29.796Z,94.10
2023-01-29T03:49:03.041Z,89.85
2023-01-29T03:51:41.929Z,93.65
2023-01-29T03:54:28.391Z,99.65
2023-01-29T03:57:11.557Z,90.82
2023-01-29T03:59:59.323Z,78.00
2023-01-29T04:03:19.394Z,73.93
2023-01-29T04:05:58.652Z,73.80
2023-01-29T04:08:34.777Z,70.22
2023-01-29T04:11:09.924Z,78.68
2023-01-29T04:13:38.162Z,80.35
2023-01-29T04:16:08.403Z,86.47
2023-01-29T04:19:06.013Z,79.63
2023-01-29T04:21:37.866Z,91.47
2023-01-29T04:24:06.552Z,79.53
2023-01-29T04:26:48.645Z,74.82
2023-01-29T04:29:49.673Z,70.32
2023-01-29T04:32:32.073Z,75.85
2023-01-29T04:34:59.005Z,73.72
2023-01-29T04:37:43.360Z,71.20
2023-01-29T04:40:16.350Z,85.93
2023-01-29T04:43:03.184Z,78.68
2023-01-29T04:45:42.083Z,76.68
2023-01-29T04:48:22.665Z,78.50
2023-01-29T04:51:05.040Z,64.00
2023-01-29T04:53:50.000Z,83.85
2023-01-29T04:56:30.632Z,68.88
2023-01-29T04:59:15.392Z,86.53
2023-01-29T05:01:43.724Z,77.82
2023-01-29T05:04:14.579Z,80.50
2023-01-29T05:06:42.450Z,82.00
2023-01-29T05:09:09.872Z,74.68
2023-01-29T05:11:37.388Z,75.95
2023-01-29T05:14:09.005Z,65.15
2023-01-29T05:16:44.002Z,51.78
2023-01-29T05:19:13.843Z,69.90
2023-01-29T05:21:43.848Z,63.20
2023-01-29T05:24:22.707Z,64.93
2023-01-29T05:27:10.843Z,83.70
2023-01-29T05:29:38.939Z,75.35
2023-01-29T05:32:05.772Z,67.15
2023-01-29T05:34:32.509Z,71.18
2023-01-29T05:36:59.210Z,64.63
2023-01-29T05:39:25.979Z,68.65
2023-01-29T05:41:52.856Z,72.43
2023-01-29T05:44:20.497Z,63.10
2023-01-29T05:46:47.244Z,63.08
2023-01-29T05:49:14.045Z,59.67
2023-01-29T05:51:40.792Z,62.78
2023-01-29T05:54:07.571Z,57.45
2023-01-29T05:56:34.281Z,56.33
2023-01-29T05:59:01.244Z,57.70
2023-01-29T06:01:27.969Z,61.78
2023-01-29T06:03:54.720Z,64.63
2023-01-29T06:06:21.482Z,63.10
2023-01-29T06:08:48.945Z,74.30
2023-01-29T06:11:18.238Z,76.85
2023-01-29T06:13:45.932Z,71.88
2023-01-29T06:16:13.805Z,76.60
2023-01-29T06:18:41.464Z,81.80
2023-01-29T06:21:11.659Z,60.03
2023-01-29T06:23:38.997Z,72.43
2023-01-29T06:26:16.236Z,76.03
2023-01-29T06:28:43.814Z,69.35
2023-01-29T06:31:31.448Z,71.63
2023-01-29T06:33:58.061Z,83.33
2023-01-29T06:36:24.926Z,81.20
2023-01-29T06:38:51.675Z,69.32
2023-01-29T06:41:19.574Z,84.20
2023-01-29T06:43:47.913Z,89.80
2023-01-29T06:46:14.682Z,83.00
2023-01-29T06:48:41.475Z,86.03
2023-01-29T06:51:10.416Z,75.75
2023-01-29T06:53:38.716Z,88.22
2023-01-29T06:56:05.985Z,78.10
2023-01-29T06:58:33.082Z,75.57
2023-01-29T07:01:07.350Z,82.82
2023-01-29T07:03:34.383Z,76.70
2023-01-29T07:06:01.208Z,68.57
2023-01-29T07:08:28.529Z,71.82
2023-01-29T07:11:01.944Z,77.72
2023-01-29T07:13:29.091Z,82.68
2023-01-29T07:16:00.592Z,75.18
2023-01-29T07:18:28.680Z,79.03
2023-01-29T07:20:55.837Z,71.32
2023-01-29T07:25:49.967Z,68.68
2023-01-29T07:28:18.846Z,65.30
2023-01-29T07:30:45.555Z,77.78
2023-01-29T07:33:12.350Z,63.35
2023-01-29T07:35:41.366Z,61.97
2023-01-29T07:38:09.952Z,65.07
2023-01-29T07:40:36.949Z,68.55
2023-01-29T07:43:08.206Z,52.15
2023-01-29T07:45:37.191Z,61.22
2023-01-29T07:48:05.651Z,51.28
2023-01-29T07:50:34.192Z,52.92
2023-01-29T07:53:01.481Z,49.33
2023-01-29T07:55:28.247Z,51.72
2023-01-29T07:57:56.364Z,48.30
2023-01-29T08:00:23.409Z,43.50
2023-01-29T08:02:50.583Z,35.88
2023-01-29T08:07:49.237Z,34.47
2023-01-29T08:10:21.094Z,32.00
2023-01-29T08:12:47.887Z,30.13
2023-01-29T08:15:14.697Z,27.05
2023-01-29T08:20:30.220Z,19.60
2023-01-29T08:23:05.097Z,19.30
2023-01-29T08:25:32.842Z,22.42
2023-01-29T08:28:00.675Z,16.92
2023-01-29T08:30:33.562Z,15.60
2023-01-29T08:33:00.884Z,15.85
2023-01-29T08:38:02.165Z,11.50
2023-01-29T08:40:32.221Z,16.00
2023-01-29T08:43:04.027Z,17.92
2023-01-29T08:45:38.029Z,16.80
2023-01-29T08:48:05.860Z,16.58
2023-01-29T08:50:35.182Z,15.70
2023-01-29T08:53:05.638Z,14.02
2023-01-29T08:55:32.629Z,16.45
2023-01-29T08:57:59.789Z,27.42
2023-01-29T09:00:27.220Z,32.92
2023-01-29T09:02:53.954Z,18.90
2023-01-29T09:05:21.061Z,18.30
2023-01-29T09:10:15.710Z,14.10
2023-01-29T09:12:42.867Z,12.55
2023-01-29T09:15:10.100Z,18.15
2023-01-29T09:20:06.180Z,16.83
2023-01-29T09:22:32.894Z,14.05
2023-01-29T09:24:59.675Z,14.75
2023-01-29T09:27:26.470Z,17.90
2023-01-29T09:29:53.203Z,16.55
2023-01-29T09:32:49.706Z,58.30
2023-01-29T09:35:13.046Z,29.00
2023-01-29T09:37:40.876Z,31.83
2023-01-29T09:40:18.524Z,14.10
2023-01-29T09:42:54.390Z,19.00
2023-01-29T09:45:25.451Z,13.52
2023-01-29T09:47:53.367Z,12.82
2023-01-29T09:50:28.194Z,20.83
2023-01-29T09:53:05.115Z,18.10
2023-01-29T09:55:38.232Z,13.63
2023-01-29T09:58:34.316Z,16.40
2023-01-29T10:01:18.950Z,14.75
2023-01-29T10:03:51.454Z,14.80
2023-01-29T10:06:48.957Z,12.35
2023-01-29T10:09:46.493Z,15.02
2023-01-29T10:12:31.330Z,20.73
2023-01-29T10:15:22.397Z,19.38
2023-01-29T10:17:50.445Z,17.05
2023-01-29T10:20:35.812Z,17.38
2023-01-29T10:23:30.632Z,18.92
2023-01-29T10:25:58.176Z,21.58
2023-01-29T10:28:45.982Z,18.58
2023-01-29T10:31:19.120Z,18.27
2023-01-29T10:34:02.035Z,14.60
2023-01-29T10:36:47.951Z,17.30
2023-01-29T10:39:23.129Z,17.83
2023-01-29T10:42:13.343Z,17.63
2023-01-29T10:45:01.085Z,20.13
2023-01-29T10:47:56.226Z,20.33
2023-01-29T10:50:44.373Z,13.40
2023-01-29T10:53:20.116Z,13.27
2023-01-29T10:55:53.889Z,15.98
2023-01-29T10:58:34.145Z,15.98
2023-01-29T11:01:01.427Z,17.63
2023-01-29T11:06:12.033Z,15.82
2023-01-29T11:08:54.372Z,18.92
2023-01-29T11:11:27.217Z,33.28
2023-01-29T11:14:05.353Z,28.73
2023-01-29T11:16:39.757Z,19.33
2023-01-29T11:19:06.599Z,17.15
2023-01-29T11:21:56.724Z,19.38
2023-01-29T11:24:23.990Z,18.58
2023-01-29T11:32:14.168Z,19.52
2023-01-29T11:35:00.856Z,18.70
2023-01-29T11:37:42.090Z,16.67
2023-01-29T11:40:34.151Z,15.90
2023-01-29T11:43:22.414Z,15.40
2023-01-29T11:45:52.075Z,15.38
2023-01-29T11:48:21.766Z,17.38
2023-01-29T11:51:00.967Z,16.92
2023-01-29T11:53:45.205Z,12.52
2023-01-29T11:56:45.517Z,13.85
2023-01-29T11:59:44.102Z,14.30
2023-01-29T12:02:19.287Z,13.85
2023-01-29T12:04:46.977Z,14.18
2023-01-29T12:07:16.978Z,13.73
2023-01-29T12:09:56.265Z,15.02
2023-01-29T12:12:32.041Z,15.43
2023-01-29T12:15:17.202Z,18.45
2023-01-29T12:18:18.323Z,20.05
2023-01-29T12:20:50.821Z,19.73
2023-01-29T12:23:48.190Z,15.70
2023-01-29T12:26:22.110Z,27.58
2023-01-29T12:29:32.570Z,19.50
2023-01-29T12:32:08.234Z,14.48
2023-01-29T12:34:47.097Z,16.95
2023-01-29T12:37:34.090Z,16.60
2023-01-29T12:40:01.850Z,16.08
2023-01-29T12:42:28.851Z,15.32
2023-01-29T12:47:36.701Z,16.02
2023-01-29T12:50:15.082Z,14.38
2023-01-29T12:52:48.228Z,18.48
2023-01-29T12:55:26.815Z,19.20
2023-01-29T12:58:05.274Z,14.93
2023-01-29T13:00:35.698Z,18.75
2023-01-29T13:03:28.857Z,19.90
2023-01-29T13:06:01.073Z,17.52
2023-01-29T13:08:32.449Z,16.30
2023-01-29T13:11:04.079Z,15.30
2023-01-29T13:13:45.043Z,14.93
2023-01-29T13:16:15.853Z,17.33
2023-01-29T13:19:02.737Z,16.58
2023-01-29T13:21:35.286Z,15.15
2023-01-29T13:24:13.092Z,17.45
2023-01-29T13:29:21.362Z,16.27
2023-01-29T13:31:50.025Z,16.55
2023-01-29T13:34:31.621Z,15.80
2023-01-29T13:37:02.951Z,17.60
2023-01-29T13:39:37.493Z,16.60
2023-01-29T13:42:17.813Z,20.55
2023-01-29T13:44:50.455Z,16.85
2023-01-29T13:47:30.495Z,18.48
2023-01-29T13:50:03.838Z,18.50
2023-01-29T13:52:37.032Z,17.67
2023-01-29T13:55:26.265Z,19.52
2023-01-29T13:57:56.375Z,14.98
2023-01-29T14:00:25.063Z,14.93
2023-01-29T14:02:54.690Z,18.27
2023-01-29T14:05:30.670Z,27.70
2023-01-29T14:08:07.170Z,16.25
2023-01-29T14:10:36.153Z,18.48
2023-01-29T14:13:27.549Z,15.98
2023-01-29T14:15:57.804Z,121.22
2023-01-29T14:18:29.675Z,21.70
2023-01-29T14:21:21.743Z,19.42
2023-01-29T14:23:53.863Z,17.92
2023-01-29T14:26:23.624Z,18.23
2023-01-29T14:29:12.958Z,16.83
2023-01-29T14:31:52.189Z,18.33
2023-01-29T14:37:04.093Z,18.38
2023-01-29T14:39:43.039Z,21.25
2023-01-29T14:42:34.977Z,19.27
2023-01-29T14:45:21.522Z,30.85
2023-01-29T14:47:48.222Z,19.42
2023-01-29T14:50:31.821Z,30.23
2023-01-29T14:53:11.366Z,33.15
2023-01-29T14:55:40.742Z,29.75
2023-01-29T14:58:15.055Z,35.03
2023-01-29T15:00:46.065Z,24.25
2023-01-29T15:03:39.779Z,22.55
2023-01-29T15:06:10.449Z,28.10
2023-01-29T15:09:02.568Z,24.27
2023-01-29T15:11:56.017Z,27.00
2023-01-29T15:14:32.873Z,21.00
2023-01-29T15:17:07.842Z,22.23
2023-01-29T15:19:44.667Z,34.80
2023-01-29T15:22:33.013Z,18.40
2023-01-29T15:25:14.486Z,16.55
2023-01-29T15:27:43.428Z,20.05
2023-01-29T15:30:29.389Z,16.92
2023-01-29T15:32:56.822Z,16.00
2023-01-29T15:35:33.940Z,18.10
2023-01-29T15:38:00.660Z,20.98
2023-01-29T15:40:27.780Z,16.92
2023-01-29T15:42:54.526Z,23.50
2023-01-29T15:45:32.607Z,22.10
2023-01-29T15:48:05.723Z,20.90
2023-01-29T15:50:36.965Z,22.38
2023-01-29T15:53:08.242Z,22.52
2023-01-29T15:55:35.833Z,20.42
2023-01-29T15:58:02.629Z,21.70
2023-01-29T16:00:30.522Z,21.23
2023-01-29T16:02:58.349Z,29.35
2023-01-29T16:05:30.725Z,50.63
2023-01-29T16:07:58.014Z,23.35
2023-01-29T16:12:53.813Z,25.23
2023-01-29T16:15:28.140Z,26.63
2023-01-29T16:17:54.930Z,40.45
2023-01-29T16:20:30.887Z,20.20
2023-01-29T16:22:58.262Z,20.95
2023-01-29T16:25:25.100Z,21.50
2023-01-29T16:27:52.173Z,58.85
2023-01-29T16:30:19.146Z,35.03
2023-01-29T16:32:46.132Z,28.77
2023-01-29T16:35:16.845Z,23.63
2023-01-29T16:37:48.864Z,21.70
2023-01-29T16:40:37.988Z,23.67
2023-01-29T16:43:17.324Z,26.52
2023-01-29T16:46:05.621Z,24.05
2023-01-29T16:48:34.591Z,19.58
2023-01-29T16:51:13.748Z,23.48
2023-01-29T16:53:52.516Z,17.73
2023-01-29T16:56:22.550Z,21.83
2023-01-29T16:58:54.489Z,63.88
2023-01-29T17:01:24.741Z,36.63
2023-01-29T17:04:00.296Z,31.70
2023-01-29T17:06:27.816Z,28.08
2023-01-29T17:08:54.857Z,24.23
2023-01-29T17:11:30.286Z,55.72
2023-01-29T17:13:57.802Z,20.58
2023-01-29T17:16:37.601Z,36.22
2023-01-29T17:19:18.041Z,43.67
2023-01-29T17:21:44.944Z,124.60
2023-01-29T17:24:12.043Z,33.38
2023-01-29T17:26:39.602Z,30.05
2023-01-29T17:29:10.258Z,37.28
2023-01-29T17:31:37.771Z,127.38
2023-01-29T17:34:13.182Z,161.82
2023-01-29T17:36:44.792Z,39.50
2023-01-29T17:39:24.031Z,24.63
2023-01-29T17:41:53.933Z,45.95
2023-01-29T17:44:21.881Z,26.15
2023-01-29T17:46:49.659Z,25.50
2023-01-29T17:49:24.094Z,23.58
2023-01-29T17:51:56.327Z,38.63
2023-01-29T17:54:24.319Z,165.18
2023-01-29T17:56:52.192Z,54.33
2023-01-29T17:59:22.290Z,350.95
2023-01-29T18:01:50.243Z,61.80
2023-01-29T18:04:21.371Z,22.55
2023-01-29T18:06:50.570Z,47.08
2023-01-29T18:09:20.647Z,75.88
2023-01-29T18:11:49.472Z,23.55
2023-01-29T18:14:17.480Z,31.05
2023-01-29T18:16:45.216Z,22.83
2023-01-29T18:19:24.267Z,40.45
2023-01-29T18:21:51.489Z,30.15
2023-01-29T18:24:20.579Z,32.25
2023-01-29T18:26:49.013Z,21.88
2023-01-29T18:29:15.923Z,24.08
2023-01-29T18:31:42.652Z,26.70
2023-01-29T18:34:09.604Z,23.83
2023-01-29T18:36:36.384Z,24.92
2023-01-29T18:39:03.291Z,27.30
2023-01-29T18:41:30.017Z,24.52
2023-01-29T18:43:57.122Z,28.33
2023-01-29T18:48:51.288Z,30.98
2023-01-29T18:51:18.077Z,22.95
2023-01-29T18:53:49.416Z,109.55
2023-01-29T18:56:16.178Z,29.70
2023-01-29T18:58:42.992Z,27.00
2023-01-29T19:01:18.941Z,26.33
2023-01-29T19:03:45.703Z,31.65
2023-01-29T19:06:13.361Z,28.15
2023-01-29T19:08:41.056Z,23.58
2023-01-29T19:11:09.051Z,24.95
2023-01-29T19:13:36.827Z,40.75
2023-01-29T19:16:07.638Z,25.17
2023-01-29T19:18:34.492Z,62.00
2023-01-29T19:21:10.546Z,46.10
2023-01-29T19:23:37.476Z,30.10
2023-01-29T19:26:07.355Z,26.40
2023-01-29T19:28:34.932Z,33.95
2023-01-29T19:33:30.082Z,24.92
2023-01-29T19:35:58.186Z,25.35
2023-01-29T19:38:27.370Z,23.98
2023-01-29T19:40:57.793Z,27.58
2023-01-29T19:43:24.669Z,29.65
2023-01-29T19:46:01.326Z,25.25
2023-01-29T19:48:29.410Z,27.17
2023-01-29T19:50:59.533Z,28.35
2023-01-29T19:53:29.331Z,26.08
2023-01-29T19:56:05.051Z,25.38
2023-01-29T19:58:33.752Z,24.17
2023-01-29T20:01:07.621Z,25.30
2023-01-29T20:03:38.083Z,33.42
2023-01-29T20:06:07.215Z,25.92
2023-01-29T20:08:37.160Z,29.73
2023-01-29T20:11:06.219Z,204.30
2023-01-29T20:13:34.364Z,32.28
2023-01-29T20:16:05.757Z,26.77
2023-01-29T20:18:33.505Z,28.70
2023-01-29T20:21:08.007Z,35.90
2023-01-29T20:23:45.049Z,35.45
2023-01-29T20:26:17.192Z,33.70
2023-01-29T20:28:48.201Z,26.27
2023-01-29T20:31:16.893Z,26.95
2023-01-29T20:33:45.291Z,37.92
2023-01-29T20:36:16.321Z,34.83
2023-01-29T20:38:48.033Z,43.53
2023-01-29T20:41:18.490Z,26.02
2023-01-29T20:43:46.967Z,26.88
2023-01-29T20:46:14.746Z,28.63
2023-01-29T20:48:42.337Z,29.77
2023-01-29T20:51:17.399Z,34.83
2023-01-29T20:53:51.267Z,134.35
2023-01-29T20:56:32.015Z,59.13
2023-01-29T20:59:09.185Z,41.00
2023-01-29T21:01:35.897Z,32.72
2023-01-29T21:04:02.898Z,35.40
2023-01-29T21:06:30.123Z,33.65
2023-01-29T21:11:23.738Z,36.72
2023-01-29T21:13:53.258Z,35.13
2023-01-29T21:16:19.985Z,33.80
2023-01-29T21:18:46.771Z,35.30
2023-01-29T21:21:13.478Z,32.55
2023-01-29T21:23:40.235Z,32.47
2023-01-29T21:26:07.025Z,32.42
2023-01-29T21:28:34.510Z,28.00
2023-01-29T21:31:10.126Z,27.67
2023-01-29T21:33:38.188Z,28.77
2023-01-29T21:36:05.309Z,28.25
2023-01-29T21:41:00.714Z,26.98
2023-01-29T21:43:27.498Z,29.27
2023-01-29T21:45:59.952Z,26.02
2023-01-29T21:48:27.186Z,29.33
2023-01-29T21:53:20.800Z,26.27
2023-01-29T21:55:48.021Z,30.20
2023-01-29T22:00:41.684Z,28.95
2023-01-29T22:03:08.550Z,26.63
2023-01-29T22:05:35.472Z,34.25
2023-01-29T22:08:04.751Z,30.48
2023-01-29T22:10:34.006Z,31.40
2023-01-29T22:13:02.030Z,28.05
2023-01-29T22:15:28.985Z,33.75
2023-01-29T22:17:55.745Z,24.75
2023-01-29T22:20:29.779Z,29.27
2023-01-29T22:22:59.030Z,35.35
2023-01-29T22:25:26.139Z,31.38
2023-01-29T22:30:19.931Z,34.28
2023-01-29T22:32:47.329Z,33.10
2023-01-29T22:37:40.849Z,33.63
2023-01-29T22:40:08.313Z,32.40
2023-01-29T22:42:35.219Z,30.05
2023-01-29T22:45:01.944Z,27.73
2023-01-29T22:47:28.729Z,31.60
2023-01-29T22:49:55.428Z,26.88
2023-01-29T22:52:22.453Z,29.42
2023-01-29T22:54:49.330Z,30.55
2023-01-29T22:57:16.242Z,29.08
2023-01-29T22:59:42.954Z,33.83
2023-01-29T23:02:09.755Z,28.30
2023-01-29T23:04:36.868Z,29.27
2023-01-29T23:09:30.791Z,31.67
2023-01-29T23:11:57.559Z,35.72
2023-01-29T23:14:24.293Z,32.33
2023-01-29T23:16:51.071Z,34.17
2023-01-29T23:19:17.775Z,33.00
2023-01-29T23:21:44.591Z,31.90
2023-01-29T23:24:11.515Z,39.38
2023-01-29T23:26:57.152Z,32.72
2023-01-29T23:29:23.912Z,34.90
2023-01-29T23:31:50.706Z,33.15
2023-01-29T23:34:17.596Z,36.45
2023-01-29T23:36:44.551Z,31.45
2023-01-29T23:39:11.299Z,34.65
2023-01-29T23:41:38.126Z,33.78
2023-01-29T23:44:05.267Z,34.85
2023-01-29T23:46:32.491Z,41.42
2023-01-29T23:48:59.428Z,38.00
2023-01-29T23:51:26.275Z,36.00
2023-01-29T23:53:53.151Z,39.35
2023-01-29T23:56:20.707Z,44.60
2023-01-29T23:58:47.541Z,38.47
